sensor_id;sensor_type;location;lat;lon;timestamp;P1;durP1;ratioP1;P2;durP2;ratioP2
57071;SDS011;42956;51.366;11.298;2023-12-28T00:01:13;4.97;;;3.00;;
57071;SDS011;42956;51.366;11.298;2023-12-28T00:03:42;3.90;;;3.08;;
57071;SDS011;42956;51.366;11.298;2023-12-28T00:06:12;4.72;;;3.20;;
57071;SDS011;42956;51.366;11.298;2023-12-28T00:08:45;3.88;;;2.97;;
57071;SDS011;42956;51.366;11.298;2023-12-28T00:11:29;5.00;;;3.17;;
57071;SDS011;42956;51.366;11.298;2023-12-28T00:13:59;5.25;;;2.90;;
57071;SDS011;42956;51.366;11.298;2023-12-28T00:16:30;4.85;;;2.80;;
57071;SDS011;42956;51.366;11.298;2023-12-28T00:19:00;5.47;;;2.60;;
57071;SDS011;42956;51.366;11.298;2023-12-28T00:21:31;2.92;;;1.92;;
57071;SDS011;42956;51.366;11.298;2023-12-28T00:24:04;6.20;;;2.78;;
57071;SDS011;42956;51.366;11.298;2023-12-28T00:26:34;3.88;;;2.28;;
57071;SDS011;42956;51.366;11.298;2023-12-28T00:29:04;6.72;;;2.58;;
57071;SDS011;42956;51.366;11.298;2023-12-28T00:31:34;3.40;;;2.58;;
57071;SDS011;42956;51.366;11.298;2023-12-28T00:34:04;2.17;;;1.98;;
57071;SDS011;42956;51.366;11.298;2023-12-28T00:36:34;3.28;;;2.45;;
57071;SDS011;42956;51.366;11.298;2023-12-28T00:39:07;4.60;;;2.28;;
57071;SDS011;42956;51.366;11.298;2023-12-28T00:41:37;4.05;;;2.00;;
57071;SDS011;42956;51.366;11.298;2023-12-28T00:44:07;4.45;;;2.58;;
57071;SDS011;42956;51.366;11.298;2023-12-28T00:46:37;5.05;;;3.17;;
57071;SDS011;42956;51.366;11.298;2023-12-28T00:49:07;5.18;;;2.90;;
57071;SDS011;42956;51.366;11.298;2023-12-28T00:51:38;5.07;;;2.78;;
57071;SDS011;42956;51.366;11.298;2023-12-28T00:54:11;5.25;;;2.63;;
57071;SDS011;42956;51.366;11.298;2023-12-28T00:56:41;3.35;;;2.45;;
57071;SDS011;42956;51.366;11.298;2023-12-28T00:59:11;4.40;;;2.38;;
57071;SDS011;42956;51.366;11.298;2023-12-28T01:01:41;4.13;;;2.20;;
57071;SDS011;42956;51.366;11.298;2023-12-28T01:04:11;5.50;;;2.15;;
57071;SDS011;42956;51.366;11.298;2023-12-28T01:06:41;4.28;;;2.10;;
57071;SDS011;42956;51.366;11.298;2023-12-28T01:09:14;3.20;;;2.15;;
57071;SDS011;42956;51.366;11.298;2023-12-28T01:11:44;4.95;;;1.95;;
57071;SDS011;42956;51.366;11.298;2023-12-28T01:14:13;3.42;;;2.20;;
57071;SDS011;42956;51.366;11.298;2023-12-28T01:16:43;4.30;;;2.20;;
57071;SDS011;42956;51.366;11.298;2023-12-28T01:19:13;6.22;;;2.58;;
57071;SDS011;42956;51.366;11.298;2023-12-28T01:21:43;3.92;;;2.03;;
57071;SDS011;42956;51.366;11.298;2023-12-28T01:24:16;3.38;;;2.30;;
57071;SDS011;42956;51.366;11.298;2023-12-28T01:26:46;4.40;;;2.10;;
57071;SDS011;42956;51.366;11.298;2023-12-28T01:29:16;3.42;;;2.13;;
57071;SDS011;42956;51.366;11.298;2023-12-28T01:31:47;10.18;;;2.45;;
57071;SDS011;42956;51.366;11.298;2023-12-28T01:34:16;3.55;;;2.47;;
57071;SDS011;42956;51.366;11.298;2023-12-28T01:36:46;4.57;;;2.42;;
57071;SDS011;42956;51.366;11.298;2023-12-28T01:39:19;5.75;;;2.28;;
57071;SDS011;42956;51.366;11.298;2023-12-28T01:41:49;2.60;;;2.20;;
57071;SDS011;42956;51.366;11.298;2023-12-28T01:44:18;5.38;;;2.53;;
57071;SDS011;42956;51.366;11.298;2023-12-28T01:46:48;5.03;;;3.00;;
57071;SDS011;42956;51.366;11.298;2023-12-28T01:49:19;3.92;;;2.47;;
57071;SDS011;42956;51.366;11.298;2023-12-28T01:51:49;3.60;;;2.28;;
57071;SDS011;42956;51.366;11.298;2023-12-28T01:54:22;4.45;;;2.72;;
57071;SDS011;42956;51.366;11.298;2023-12-28T01:56:52;6.00;;;2.65;;
57071;SDS011;42956;51.366;11.298;2023-12-28T01:59:22;8.48;;;2.80;;
57071;SDS011;42956;51.366;11.298;2023-12-28T02:01:51;3.38;;;2.30;;
57071;SDS011;42956;51.366;11.298;2023-12-28T02:04:22;6.95;;;2.53;;
57071;SDS011;42956;51.366;11.298;2023-12-28T02:06:56;4.72;;;2.45;;
57071;SDS011;42956;51.366;11.298;2023-12-28T02:09:29;2.80;;;2.40;;
57071;SDS011;42956;51.366;11.298;2023-12-28T02:11:59;2.35;;;2.13;;
57071;SDS011;42956;51.366;11.298;2023-12-28T02:14:29;2.85;;;2.40;;
57071;SDS011;42956;51.366;11.298;2023-12-28T02:17:00;2.83;;;2.42;;
57071;SDS011;42956;51.366;11.298;2023-12-28T02:19:37;3.22;;;2.28;;
57071;SDS011;42956;51.366;11.298;2023-12-28T02:22:07;2.97;;;2.13;;
57071;SDS011;42956;51.366;11.298;2023-12-28T02:27:24;4.25;;;2.28;;
57071;SDS011;42956;51.366;11.298;2023-12-28T02:29:55;5.72;;;2.75;;
57071;SDS011;42956;51.366;11.298;2023-12-28T02:32:28;3.92;;;2.42;;
57071;SDS011;42956;51.366;11.298;2023-12-28T02:35:01;4.60;;;2.47;;
57071;SDS011;42956;51.366;11.298;2023-12-28T02:37:33;5.10;;;2.40;;
57071;SDS011;42956;51.366;11.298;2023-12-28T02:40:04;4.00;;;2.25;;
57071;SDS011;42956;51.366;11.298;2023-12-28T02:42:37;5.85;;;2.33;;
57071;SDS011;42956;51.366;11.298;2023-12-28T02:48:18;8.23;;;3.15;;
57071;SDS011;42956;51.366;11.298;2023-12-28T02:50:48;3.70;;;2.10;;
57071;SDS011;42956;51.366;11.298;2023-12-28T02:53:18;2.90;;;2.53;;
57071;SDS011;42956;51.366;11.298;2023-12-28T02:55:48;3.35;;;1.95;;
57071;SDS011;42956;51.366;11.298;2023-12-28T02:58:21;3.60;;;2.53;;
57071;SDS011;42956;51.366;11.298;2023-12-28T03:00:50;3.65;;;2.38;;
57071;SDS011;42956;51.366;11.298;2023-12-28T03:03:20;2.85;;;2.25;;
57071;SDS011;42956;51.366;11.298;2023-12-28T03:05:51;2.50;;;2.03;;
57071;SDS011;42956;51.366;11.298;2023-12-28T03:08:20;4.97;;;2.20;;
57071;SDS011;42956;51.366;11.298;2023-12-28T03:10:51;5.40;;;2.55;;
57071;SDS011;42956;51.366;11.298;2023-12-28T03:13:25;8.30;;;3.05;;
57071;SDS011;42956;51.366;11.298;2023-12-28T03:15:55;3.58;;;2.53;;
57071;SDS011;42956;51.366;11.298;2023-12-28T03:18:25;8.45;;;2.65;;
57071;SDS011;42956;51.366;11.298;2023-12-28T03:20:55;3.10;;;2.55;;
57071;SDS011;42956;51.366;11.298;2023-12-28T03:23:25;3.08;;;2.42;;
57071;SDS011;42956;51.366;11.298;2023-12-28T03:25:55;4.15;;;2.58;;
57071;SDS011;42956;51.366;11.298;2023-12-28T03:28:28;3.40;;;2.25;;
57071;SDS011;42956;51.366;11.298;2023-12-28T03:30:58;8.23;;;2.95;;
57071;SDS011;42956;51.366;11.298;2023-12-28T03:33:28;4.75;;;2.70;;
57071;SDS011;42956;51.366;11.298;2023-12-28T03:35:58;3.70;;;2.53;;
57071;SDS011;42956;51.366;11.298;2023-12-28T03:38:28;3.55;;;2.70;;
57071;SDS011;42956;51.366;11.298;2023-12-28T03:40:58;3.40;;;2.67;;
57071;SDS011;42956;51.366;11.298;2023-12-28T03:43:30;4.25;;;2.53;;
57071;SDS011;42956;51.366;11.298;2023-12-28T03:46:00;4.03;;;2.20;;
57071;SDS011;42956;51.366;11.298;2023-12-28T03:48:30;4.28;;;2.22;;
57071;SDS011;42956;51.366;11.298;2023-12-28T03:51:00;3.20;;;2.40;;
57071;SDS011;42956;51.366;11.298;2023-12-28T03:53:30;4.82;;;2.75;;
57071;SDS011;42956;51.366;11.298;2023-12-28T03:56:01;5.30;;;3.00;;
57071;SDS011;42956;51.366;11.298;2023-12-28T03:58:33;4.53;;;2.75;;
57071;SDS011;42956;51.366;11.298;2023-12-28T04:01:03;6.97;;;3.40;;
57071;SDS011;42956;51.366;11.298;2023-12-28T04:03:34;7.50;;;3.30;;
57071;SDS011;42956;51.366;11.298;2023-12-28T04:06:04;7.15;;;3.30;;
57071;SDS011;42956;51.366;11.298;2023-12-28T04:08:34;5.82;;;3.22;;
57071;SDS011;42956;51.366;11.298;2023-12-28T04:11:04;7.80;;;2.55;;
57071;SDS011;42956;51.366;11.298;2023-12-28T04:13:36;10.88;;;2.97;;
57071;SDS011;42956;51.366;11.298;2023-12-28T04:16:06;5.03;;;2.85;;
57071;SDS011;42956;51.366;11.298;2023-12-28T04:18:36;10.98;;;3.00;;
57071;SDS011;42956;51.366;11.298;2023-12-28T04:21:07;4.80;;;2.65;;
57071;SDS011;42956;51.366;11.298;2023-12-28T04:23:37;6.68;;;2.97;;
57071;SDS011;42956;51.366;11.298;2023-12-28T04:26:08;5.07;;;2.83;;
57071;SDS011;42956;51.366;11.298;2023-12-28T04:28:41;4.22;;;3.25;;
57071;SDS011;42956;51.366;11.298;2023-12-28T04:33:40;7.03;;;3.70;;
57071;SDS011;42956;51.366;11.298;2023-12-28T04:36:10;8.45;;;4.20;;
57071;SDS011;42956;51.366;11.298;2023-12-28T04:38:40;4.28;;;3.00;;
57071;SDS011;42956;51.366;11.298;2023-12-28T04:41:10;6.85;;;3.40;;
57071;SDS011;42956;51.366;11.298;2023-12-28T04:43:43;4.25;;;2.83;;
57071;SDS011;42956;51.366;11.298;2023-12-28T04:46:13;11.10;;;3.40;;
57071;SDS011;42956;51.366;11.298;2023-12-28T04:48:43;4.97;;;3.38;;
57071;SDS011;42956;51.366;11.298;2023-12-28T04:51:13;5.93;;;3.10;;
57071;SDS011;42956;51.366;11.298;2023-12-28T04:53:43;4.90;;;2.80;;
57071;SDS011;42956;51.366;11.298;2023-12-28T04:56:17;6.10;;;3.50;;
57071;SDS011;42956;51.366;11.298;2023-12-28T04:58:50;4.38;;;3.28;;
57071;SDS011;42956;51.366;11.298;2023-12-28T05:01:20;4.88;;;3.65;;
57071;SDS011;42956;51.366;11.298;2023-12-28T05:03:51;8.98;;;3.60;;
57071;SDS011;42956;51.366;11.298;2023-12-28T05:06:21;10.73;;;3.92;;
57071;SDS011;42956;51.366;11.298;2023-12-28T05:08:51;4.32;;;3.28;;
57071;SDS011;42956;51.366;11.298;2023-12-28T05:11:21;6.38;;;4.20;;
57071;SDS011;42956;51.366;11.298;2023-12-28T05:13:53;5.97;;;4.05;;
57071;SDS011;42956;51.366;11.298;2023-12-28T05:16:23;7.03;;;3.85;;
57071;SDS011;42956;51.366;11.298;2023-12-28T05:18:53;7.32;;;3.63;;
57071;SDS011;42956;51.366;11.298;2023-12-28T05:21:23;9.20;;;3.92;;
57071;SDS011;42956;51.366;11.298;2023-12-28T05:23:53;7.35;;;3.90;;
57071;SDS011;42956;51.366;11.298;2023-12-28T05:26:23;8.80;;;4.32;;
57071;SDS011;42956;51.366;11.298;2023-12-28T05:28:55;7.75;;;3.42;;
57071;SDS011;42956;51.366;11.298;2023-12-28T05:31:25;4.70;;;3.22;;
57071;SDS011;42956;51.366;11.298;2023-12-28T05:33:55;7.05;;;3.78;;
57071;SDS011;42956;51.366;11.298;2023-12-28T05:36:26;8.25;;;3.70;;
57071;SDS011;42956;51.366;11.298;2023-12-28T05:38:55;5.63;;;3.85;;
57071;SDS011;42956;51.366;11.298;2023-12-28T05:41:25;8.15;;;4.32;;
57071;SDS011;42956;51.366;11.298;2023-12-28T05:43:58;12.82;;;4.55;;
57071;SDS011;42956;51.366;11.298;2023-12-28T05:46:28;5.53;;;3.72;;
57071;SDS011;42956;51.366;11.298;2023-12-28T05:48:58;6.85;;;3.80;;
57071;SDS011;42956;51.366;11.298;2023-12-28T05:51:27;6.30;;;3.75;;
57071;SDS011;42956;51.366;11.298;2023-12-28T05:53:57;5.80;;;3.45;;
57071;SDS011;42956;51.366;11.298;2023-12-28T05:56:28;6.85;;;4.18;;
57071;SDS011;42956;51.366;11.298;2023-12-28T05:59:00;6.00;;;3.78;;
57071;SDS011;42956;51.366;11.298;2023-12-28T06:01:30;4.28;;;3.88;;
57071;SDS011;42956;51.366;11.298;2023-12-28T06:04:00;4.35;;;3.45;;
57071;SDS011;42956;51.366;11.298;2023-12-28T06:06:30;6.70;;;3.83;;
57071;SDS011;42956;51.366;11.298;2023-12-28T06:09:01;7.22;;;4.18;;
57071;SDS011;42956;51.366;11.298;2023-12-28T06:11:31;10.65;;;4.50;;
57071;SDS011;42956;51.366;11.298;2023-12-28T06:14:03;8.18;;;3.90;;
57071;SDS011;42956;51.366;11.298;2023-12-28T06:16:33;7.38;;;4.22;;
57071;SDS011;42956;51.366;11.298;2023-12-28T06:19:03;5.13;;;3.63;;
57071;SDS011;42956;51.366;11.298;2023-12-28T06:21:33;8.90;;;4.53;;
57071;SDS011;42956;51.366;11.298;2023-12-28T06:24:03;5.20;;;3.97;;
57071;SDS011;42956;51.366;11.298;2023-12-28T06:26:33;8.23;;;4.38;;
57071;SDS011;42956;51.366;11.298;2023-12-28T06:29:06;7.18;;;3.90;;
57071;SDS011;42956;51.366;11.298;2023-12-28T06:31:36;3.95;;;3.22;;
57071;SDS011;42956;51.366;11.298;2023-12-28T06:34:06;6.63;;;4.07;;
57071;SDS011;42956;51.366;11.298;2023-12-28T06:36:37;8.40;;;4.25;;
57071;SDS011;42956;51.366;11.298;2023-12-28T06:39:07;7.30;;;4.07;;
57071;SDS011;42956;51.366;11.298;2023-12-28T06:41:37;10.85;;;4.30;;
57071;SDS011;42956;51.366;11.298;2023-12-28T06:44:11;6.07;;;4.50;;
57071;SDS011;42956;51.366;11.298;2023-12-28T06:46:41;5.75;;;3.83;;
57071;SDS011;42956;51.366;11.298;2023-12-28T06:49:11;5.85;;;3.92;;
57071;SDS011;42956;51.366;11.298;2023-12-28T06:51:41;9.27;;;3.63;;
57071;SDS011;42956;51.366;11.298;2023-12-28T06:54:13;6.13;;;4.32;;
57071;SDS011;42956;51.366;11.298;2023-12-28T06:56:43;5.43;;;4.20;;
57071;SDS011;42956;51.366;11.298;2023-12-28T06:59:15;11.40;;;4.40;;
57071;SDS011;42956;51.366;11.298;2023-12-28T07:01:45;6.13;;;4.40;;
57071;SDS011;42956;51.366;11.298;2023-12-28T07:04:16;10.52;;;4.13;;
57071;SDS011;42956;51.366;11.298;2023-12-28T07:06:48;7.05;;;4.70;;
57071;SDS011;42956;51.366;11.298;2023-12-28T07:09:18;12.13;;;4.88;;
57071;SDS011;42956;51.366;11.298;2023-12-28T07:11:47;9.27;;;4.72;;
57071;SDS011;42956;51.366;11.298;2023-12-28T07:14:20;7.72;;;4.40;;
57071;SDS011;42956;51.366;11.298;2023-12-28T07:16:50;6.93;;;4.28;;
57071;SDS011;42956;51.366;11.298;2023-12-28T07:19:20;11.07;;;4.50;;
57071;SDS011;42956;51.366;11.298;2023-12-28T07:21:50;5.95;;;4.00;;
57071;SDS011;42956;51.366;11.298;2023-12-28T07:24:20;7.07;;;4.47;;
57071;SDS011;42956;51.366;11.298;2023-12-28T07:26:50;6.88;;;4.30;;
57071;SDS011;42956;51.366;11.298;2023-12-28T07:29:23;5.97;;;3.92;;
57071;SDS011;42956;51.366;11.298;2023-12-28T07:34:23;6.85;;;4.07;;
57071;SDS011;42956;51.366;11.298;2023-12-28T07:36:53;5.10;;;4.07;;
57071;SDS011;42956;51.366;11.298;2023-12-28T07:39:23;8.93;;;4.55;;
57071;SDS011;42956;51.366;11.298;2023-12-28T07:41:53;10.43;;;4.53;;
57071;SDS011;42956;51.366;11.298;2023-12-28T07:44:25;5.88;;;4.38;;
57071;SDS011;42956;51.366;11.298;2023-12-28T07:46:55;7.32;;;4.20;;
57071;SDS011;42956;51.366;11.298;2023-12-28T07:49:25;6.07;;;4.35;;
57071;SDS011;42956;51.366;11.298;2023-12-28T07:51:55;13.45;;;4.50;;
57071;SDS011;42956;51.366;11.298;2023-12-28T07:54:25;6.28;;;4.18;;
57071;SDS011;42956;51.366;11.298;2023-12-28T07:56:55;6.80;;;4.50;;
57071;SDS011;42956;51.366;11.298;2023-12-28T07:59:27;9.48;;;4.90;;
57071;SDS011;42956;51.366;11.298;2023-12-28T08:01:57;7.65;;;4.30;;
57071;SDS011;42956;51.366;11.298;2023-12-28T08:04:27;5.93;;;3.85;;
57071;SDS011;42956;51.366;11.298;2023-12-28T08:06:58;7.65;;;4.18;;
57071;SDS011;42956;51.366;11.298;2023-12-28T08:09:28;7.47;;;4.95;;
57071;SDS011;42956;51.366;11.298;2023-12-28T08:11:58;6.30;;;4.45;;
57071;SDS011;42956;51.366;11.298;2023-12-28T08:14:32;4.70;;;3.45;;
57071;SDS011;42956;51.366;11.298;2023-12-28T08:17:02;6.55;;;3.97;;
57071;SDS011;42956;51.366;11.298;2023-12-28T08:19:32;7.65;;;4.70;;
57071;SDS011;42956;51.366;11.298;2023-12-28T08:22:02;6.95;;;4.80;;
57071;SDS011;42956;51.366;11.298;2023-12-28T08:24:32;11.45;;;4.53;;
57071;SDS011;42956;51.366;11.298;2023-12-28T08:27:03;5.38;;;4.00;;
57071;SDS011;42956;51.366;11.298;2023-12-28T08:29:36;4.82;;;3.40;;
57071;SDS011;42956;51.366;11.298;2023-12-28T08:32:06;5.28;;;3.33;;
57071;SDS011;42956;51.366;11.298;2023-12-28T08:34:36;11.25;;;4.25;;
57071;SDS011;42956;51.366;11.298;2023-12-28T08:37:06;8.35;;;4.22;;
57071;SDS011;42956;51.366;11.298;2023-12-28T08:39:37;4.55;;;3.17;;
57071;SDS011;42956;51.366;11.298;2023-12-28T08:42:07;7.25;;;3.90;;
57071;SDS011;42956;51.366;11.298;2023-12-28T08:44:39;6.03;;;3.88;;
57071;SDS011;42956;51.366;11.298;2023-12-28T08:47:12;5.65;;;4.25;;
57071;SDS011;42956;51.366;11.298;2023-12-28T08:49:42;5.60;;;4.47;;
57071;SDS011;42956;51.366;11.298;2023-12-28T08:52:12;6.82;;;4.65;;
57071;SDS011;42956;51.366;11.298;2023-12-28T08:54:42;5.60;;;4.05;;
57071;SDS011;42956;51.366;11.298;2023-12-28T08:57:12;5.68;;;4.47;;
57071;SDS011;42956;51.366;11.298;2023-12-28T08:59:51;8.00;;;4.40;;
57071;SDS011;42956;51.366;11.298;2023-12-28T09:02:20;7.32;;;3.95;;
57071;SDS011;42956;51.366;11.298;2023-12-28T09:04:50;5.85;;;4.20;;
57071;SDS011;42956;51.366;11.298;2023-12-28T09:07:20;5.63;;;4.13;;
57071;SDS011;42956;51.366;11.298;2023-12-28T09:09:51;6.57;;;4.00;;
57071;SDS011;42956;51.366;11.298;2023-12-28T09:12:21;9.48;;;4.47;;
57071;SDS011;42956;51.366;11.298;2023-12-28T09:14:53;5.35;;;4.40;;
57071;SDS011;42956;51.366;11.298;2023-12-28T09:17:23;4.93;;;3.85;;
57071;SDS011;42956;51.366;11.298;2023-12-28T09:19:54;7.00;;;3.75;;
57071;SDS011;42956;51.366;11.298;2023-12-28T09:22:25;6.18;;;4.65;;
57071;SDS011;42956;51.366;11.298;2023-12-28T09:24:57;8.98;;;4.90;;
57071;SDS011;42956;51.366;11.298;2023-12-28T09:27:27;6.07;;;4.07;;
57071;SDS011;42956;51.366;11.298;2023-12-28T09:29:59;9.55;;;3.83;;
57071;SDS011;42956;51.366;11.298;2023-12-28T09:32:30;6.75;;;3.78;;
57071;SDS011;42956;51.366;11.298;2023-12-28T09:35:00;5.65;;;3.78;;
57071;SDS011;42956;51.366;11.298;2023-12-28T09:37:30;5.80;;;3.65;;
57071;SDS011;42956;51.366;11.298;2023-12-28T09:40:00;6.15;;;3.92;;
57071;SDS011;42956;51.366;11.298;2023-12-28T09:42:31;6.05;;;3.70;;
57071;SDS011;42956;51.366;11.298;2023-12-28T09:45:04;5.07;;;4.22;;
57071;SDS011;42956;51.366;11.298;2023-12-28T09:47:37;6.38;;;3.55;;
57071;SDS011;42956;51.366;11.298;2023-12-28T09:50:08;5.05;;;3.60;;
57071;SDS011;42956;51.366;11.298;2023-12-28T09:52:38;7.18;;;3.90;;
57071;SDS011;42956;51.366;11.298;2023-12-28T09:55:08;7.00;;;3.95;;
57071;SDS011;42956;51.366;11.298;2023-12-28T09:57:38;10.68;;;3.92;;
57071;SDS011;42956;51.366;11.298;2023-12-28T10:00:12;10.95;;;3.45;;
57071;SDS011;42956;51.366;11.298;2023-12-28T10:02:43;5.30;;;3.55;;
57071;SDS011;42956;51.366;11.298;2023-12-28T10:05:14;5.05;;;3.22;;
57071;SDS011;42956;51.366;11.298;2023-12-28T10:07:44;6.72;;;4.28;;
57071;SDS011;42956;51.366;11.298;2023-12-28T10:10:17;7.32;;;5.25;;
57071;SDS011;42956;51.366;11.298;2023-12-28T10:12:49;9.40;;;4.70;;
57071;SDS011;42956;51.366;11.298;2023-12-28T10:15:21;7.35;;;3.85;;
57071;SDS011;42956;51.366;11.298;2023-12-28T10:20:21;4.82;;;3.78;;
57071;SDS011;42956;51.366;11.298;2023-12-28T10:22:51;6.13;;;3.97;;
57071;SDS011;42956;51.366;11.298;2023-12-28T10:25:21;4.45;;;2.83;;
57071;SDS011;42956;51.366;11.298;2023-12-28T10:27:51;5.22;;;3.35;;
57071;SDS011;42956;51.366;11.298;2023-12-28T10:30:24;8.75;;;3.65;;
57071;SDS011;42956;51.366;11.298;2023-12-28T10:32:52;8.13;;;4.25;;
57071;SDS011;42956;51.366;11.298;2023-12-28T10:35:22;4.72;;;3.30;;
57071;SDS011;42956;51.366;11.298;2023-12-28T10:37:53;5.05;;;3.58;;
57071;SDS011;42956;51.366;11.298;2023-12-28T10:40:27;4.63;;;3.03;;
57071;SDS011;42956;51.366;11.298;2023-12-28T10:42:58;7.78;;;3.35;;
57071;SDS011;42956;51.366;11.298;2023-12-28T10:45:33;5.40;;;3.65;;
57071;SDS011;42956;51.366;11.298;2023-12-28T10:48:05;5.88;;;3.22;;
57071;SDS011;42956;51.366;11.298;2023-12-28T10:50:38;4.93;;;2.67;;
57071;SDS011;42956;51.366;11.298;2023-12-28T10:53:15;5.68;;;3.50;;
57071;SDS011;42956;51.366;11.298;2023-12-28T10:55:51;4.78;;;3.20;;
57071;SDS011;42956;51.366;11.298;2023-12-28T10:58:24;4.13;;;2.90;;
57071;SDS011;42956;51.366;11.298;2023-12-28T11:00:58;6.88;;;2.90;;
57071;SDS011;42956;51.366;11.298;2023-12-28T11:03:30;3.88;;;2.92;;
57071;SDS011;42956;51.366;11.298;2023-12-28T11:06:04;5.00;;;3.40;;
57071;SDS011;42956;51.366;11.298;2023-12-28T11:08:34;9.05;;;2.72;;
57071;SDS011;42956;51.366;11.298;2023-12-28T11:11:05;5.25;;;3.20;;
57071;SDS011;42956;51.366;11.298;2023-12-28T11:13:36;5.30;;;3.30;;
57071;SDS011;42956;51.366;11.298;2023-12-28T11:16:09;6.88;;;2.70;;
57071;SDS011;42956;51.366;11.298;2023-12-28T11:18:41;8.48;;;2.42;;
57071;SDS011;42956;51.366;11.298;2023-12-28T11:21:11;2.42;;;2.22;;
57071;SDS011;42956;51.366;11.298;2023-12-28T11:23:41;7.47;;;3.13;;
57071;SDS011;42956;51.366;11.298;2023-12-28T11:26:15;11.02;;;5.60;;
57071;SDS011;42956;51.366;11.298;2023-12-28T11:28:45;6.70;;;3.28;;
57071;SDS011;42956;51.366;11.298;2023-12-28T11:31:17;12.07;;;5.10;;
57071;SDS011;42956;51.366;11.298;2023-12-28T11:36:19;5.40;;;3.30;;
57071;SDS011;42956;51.366;11.298;2023-12-28T11:38:51;5.32;;;3.13;;
57071;SDS011;42956;51.366;11.298;2023-12-28T11:41:22;5.75;;;2.97;;
57071;SDS011;42956;51.366;11.298;2023-12-28T11:43:52;10.32;;;2.78;;
57071;SDS011;42956;51.366;11.298;2023-12-28T11:46:25;3.38;;;2.42;;
57071;SDS011;42956;51.366;11.298;2023-12-28T11:49:02;4.82;;;2.83;;
57071;SDS011;42956;51.366;11.298;2023-12-28T11:51:33;4.80;;;2.58;;
57071;SDS011;42956;51.366;11.298;2023-12-28T11:54:04;6.38;;;2.55;;
57071;SDS011;42956;51.366;11.298;2023-12-28T11:56:34;4.72;;;2.67;;
57071;SDS011;42956;51.366;11.298;2023-12-28T11:59:04;2.90;;;2.13;;
57071;SDS011;42956;51.366;11.298;2023-12-28T12:01:37;7.70;;;2.15;;
57071;SDS011;42956;51.366;11.298;2023-12-28T12:04:08;5.22;;;2.92;;
57071;SDS011;42956;51.366;11.298;2023-12-28T12:06:38;5.15;;;2.53;;
57071;SDS011;42956;51.366;11.298;2023-12-28T12:09:10;5.55;;;2.50;;
57071;SDS011;42956;51.366;11.298;2023-12-28T12:11:40;4.75;;;2.30;;
57071;SDS011;42956;51.366;11.298;2023-12-28T12:14:10;5.45;;;2.78;;
57071;SDS011;42956;51.366;11.298;2023-12-28T12:16:43;8.80;;;2.53;;
57071;SDS011;42956;51.366;11.298;2023-12-28T12:19:14;3.10;;;2.67;;
57071;SDS011;42956;51.366;11.298;2023-12-28T12:21:44;3.38;;;2.25;;
57071;SDS011;42956;51.366;11.298;2023-12-28T12:24:14;3.97;;;2.25;;
57071;SDS011;42956;51.366;11.298;2023-12-28T12:26:45;3.53;;;2.38;;
57071;SDS011;42956;51.366;11.298;2023-12-28T12:29:14;7.55;;;2.38;;
57071;SDS011;42956;51.366;11.298;2023-12-28T12:31:54;4.68;;;2.90;;
57071;SDS011;42956;51.366;11.298;2023-12-28T12:36:55;12.07;;;2.45;;
57071;SDS011;42956;51.366;11.298;2023-12-28T12:39:26;2.38;;;1.98;;
57071;SDS011;42956;51.366;11.298;2023-12-28T12:41:56;3.08;;;2.03;;
57071;SDS011;42956;51.366;11.298;2023-12-28T12:44:26;4.25;;;2.05;;
57071;SDS011;42956;51.366;11.298;2023-12-28T12:46:59;3.13;;;1.95;;
57071;SDS011;42956;51.366;11.298;2023-12-28T12:49:30;3.90;;;2.08;;
57071;SDS011;42956;51.366;11.298;2023-12-28T12:52:01;5.95;;;2.22;;
57071;SDS011;42956;51.366;11.298;2023-12-28T12:54:31;3.28;;;2.50;;
57071;SDS011;42956;51.366;11.298;2023-12-28T12:57:02;3.63;;;2.17;;
57071;SDS011;42956;51.366;11.298;2023-12-28T12:59:32;4.72;;;2.15;;
57071;SDS011;42956;51.366;11.298;2023-12-28T13:02:09;3.25;;;2.20;;
57071;SDS011;42956;51.366;11.298;2023-12-28T13:04:40;3.45;;;2.63;;
57071;SDS011;42956;51.366;11.298;2023-12-28T13:07:10;3.60;;;2.05;;
57071;SDS011;42956;51.366;11.298;2023-12-28T13:09:40;3.40;;;2.30;;
57071;SDS011;42956;51.366;11.298;2023-12-28T13:12:10;5.63;;;2.20;;
57071;SDS011;42956;51.366;11.298;2023-12-28T13:14:40;11.25;;;1.92;;
57071;SDS011;42956;51.366;11.298;2023-12-28T13:17:14;4.80;;;2.17;;
57071;SDS011;42956;51.366;11.298;2023-12-28T13:19:44;3.85;;;1.85;;
57071;SDS011;42956;51.366;11.298;2023-12-28T13:22:14;4.60;;;1.88;;
57071;SDS011;42956;51.366;11.298;2023-12-28T13:24:44;5.03;;;2.67;;
57071;SDS011;42956;51.366;11.298;2023-12-28T13:27:13;6.03;;;2.35;;
57071;SDS011;42956;51.366;11.298;2023-12-28T13:29:43;9.18;;;2.40;;
57071;SDS011;42956;51.366;11.298;2023-12-28T13:32:16;5.60;;;3.08;;
57071;SDS011;42956;51.366;11.298;2023-12-28T13:34:46;6.78;;;2.78;;
57071;SDS011;42956;51.366;11.298;2023-12-28T13:37:17;7.05;;;3.72;;
57071;SDS011;42956;51.366;11.298;2023-12-28T13:39:47;7.93;;;3.05;;
57071;SDS011;42956;51.366;11.298;2023-12-28T13:42:17;5.68;;;2.75;;
57071;SDS011;42956;51.366;11.298;2023-12-28T13:44:47;8.18;;;2.08;;
57071;SDS011;42956;51.366;11.298;2023-12-28T13:47:20;2.90;;;2.28;;
57071;SDS011;42956;51.366;11.298;2023-12-28T13:49:49;3.53;;;1.88;;
57071;SDS011;42956;51.366;11.298;2023-12-28T13:52:20;2.15;;;1.95;;
57071;SDS011;42956;51.366;11.298;2023-12-28T13:54:50;3.45;;;1.80;;
57071;SDS011;42956;51.366;11.298;2023-12-28T13:57:20;2.92;;;2.17;;
57071;SDS011;42956;51.366;11.298;2023-12-28T13:59:50;4.68;;;2.05;;
57071;SDS011;42956;51.366;11.298;2023-12-28T14:02:25;4.55;;;2.83;;
57071;SDS011;42956;51.366;11.298;2023-12-28T14:04:55;13.77;;;2.55;;
57071;SDS011;42956;51.366;11.298;2023-12-28T14:07:26;5.07;;;2.80;;
57071;SDS011;42956;51.366;11.298;2023-12-28T14:09:56;4.78;;;2.55;;
57071;SDS011;42956;51.366;11.298;2023-12-28T14:12:27;3.20;;;2.25;;
57071;SDS011;42956;51.366;11.298;2023-12-28T14:14:57;5.72;;;2.50;;
57071;SDS011;42956;51.366;11.298;2023-12-28T14:17:31;3.25;;;2.08;;
57071;SDS011;42956;51.366;11.298;2023-12-28T14:20:01;4.68;;;1.92;;
57071;SDS011;42956;51.366;11.298;2023-12-28T14:22:31;3.33;;;2.25;;
57071;SDS011;42956;51.366;11.298;2023-12-28T14:25:01;3.65;;;2.50;;
57071;SDS011;42956;51.366;11.298;2023-12-28T14:27:32;10.40;;;2.78;;
57071;SDS011;42956;51.366;11.298;2023-12-28T14:30:02;9.30;;;4.35;;
57071;SDS011;42956;51.366;11.298;2023-12-28T14:32:36;6.45;;;3.08;;
57071;SDS011;42956;51.366;11.298;2023-12-28T14:37:35;5.82;;;3.10;;
57071;SDS011;42956;51.366;11.298;2023-12-28T14:40:06;10.70;;;4.60;;
57071;SDS011;42956;51.366;11.298;2023-12-28T14:42:38;14.95;;;7.88;;
57071;SDS011;42956;51.366;11.298;2023-12-28T14:45:09;6.15;;;3.25;;
57071;SDS011;42956;51.366;11.298;2023-12-28T14:47:41;4.30;;;2.58;;
57071;SDS011;42956;51.366;11.298;2023-12-28T14:50:13;7.30;;;3.03;;
57071;SDS011;42956;51.366;11.298;2023-12-28T14:52:43;6.20;;;3.10;;
57071;SDS011;42956;51.366;11.298;2023-12-28T14:55:13;3.35;;;2.53;;
57071;SDS011;42956;51.366;11.298;2023-12-28T14:57:43;9.88;;;3.17;;
57071;SDS011;42956;51.366;11.298;2023-12-28T15:00:14;6.13;;;3.60;;
57071;SDS011;42956;51.366;11.298;2023-12-28T15:02:46;4.38;;;2.85;;
57071;SDS011;42956;51.366;11.298;2023-12-28T15:05:16;5.50;;;2.47;;
57071;SDS011;42956;51.366;11.298;2023-12-28T15:07:46;3.58;;;2.80;;
57071;SDS011;42956;51.366;11.298;2023-12-28T15:10:17;8.10;;;3.35;;
57071;SDS011;42956;51.366;11.298;2023-12-28T15:12:48;6.93;;;3.72;;
57071;SDS011;42956;51.366;11.298;2023-12-28T15:15:18;9.05;;;3.63;;